sensor_id;sensor_type;location;lat;lon;timestamp;P1;P2;P0
44933;PMS3003;30667;43.614;1.442;2023-04-12T00:01:44;10.00;9.50;5.00
44933;PMS3003;30667;43.614;1.442;2023-04-12T00:04:10;8.75;8.75;4.50
44933;PMS3003;30667;43.614;1.442;2023-04-12T00:06:38;11.80;10.00;5.60
44933;PMS3003;30667;43.614;1.442;2023-04-12T00:09:04;9.00;8.20;4.00
44933;PMS3003;30667;43.614;1.442;2023-04-12T00:11:30;9.00;8.25;4.25
44933;PMS3003;30667;43.614;1.442;2023-04-12T00:13:56;7.80;7.80;4.00
44933;PMS3003;30667;43.614;1.442;2023-04-12T00:16:21;9.00;8.25;4.50
44933;PMS3003;30667;43.614;1.442;2023-04-12T00:18:47;10.25;9.00;4.25
44933;PMS3003;30667;43.614;1.442;2023-04-12T00:21:12;11.00;8.75;4.50
44933;PMS3003;30667;43.614;1.442;2023-04-12T00:23:41;10.00;9.00;4.80
44933;PMS3003;30667;43.614;1.442;2023-04-12T00:26:08;9.60;8.80;4.00
44933;PMS3003;30667;43.614;1.442;2023-04-12T00:28:34;9.75;9.50;5.00
44933;PMS3003;30667;43.614;1.442;2023-04-12T00:30:59;9.50;8.50;5.25
44933;PMS3003;30667;43.614;1.442;2023-04-12T00:33:24;11.00;10.00;5.50
44933;PMS3003;30667;43.614;1.442;2023-04-12T00:35:50;11.50;9.25;6.00
44933;PMS3003;30667;43.614;1.442;2023-04-12T00:38:15;10.50;10.25;6.00
44933;PMS3003;30667;43.614;1.442;2023-04-12T00:40:41;10.75;9.75;5.00
44933;PMS3003;30667;43.614;1.442;2023-04-12T00:43:07;9.00;8.40;4.20
44933;PMS3003;30667;43.614;1.442;2023-04-12T00:45:34;9.20;9.20;5.00
44933;PMS3003;30667;43.614;1.442;2023-04-12T00:48:01;10.40;9.80;5.00
44933;PMS3003;30667;43.614;1.442;2023-04-12T00:50:29;10.60;8.40;4.20
44933;PMS3003;30667;43.614;1.442;2023-04-12T00:52:54;10.25;10.00;5.50
44933;PMS3003;30667;43.614;1.442;2023-04-12T00:55:22;11.00;9.00;5.00
44933;PMS3003;30667;43.614;1.442;2023-04-12T00:57:48;9.25;9.25;4.50
44933;PMS3003;30667;43.614;1.442;2023-04-12T01:00:14;11.25;10.75;7.00
44933;PMS3003;30667;43.614;1.442;2023-04-12T01:02:41;8.20;8.20;4.00
44933;PMS3003;30667;43.614;1.442;2023-04-12T01:05:11;9.60;9.00;5.00
44933;PMS3003;30667;43.614;1.442;2023-04-12T01:10:34;10.80;9.20;4.00
44933;PMS3003;30667;43.614;1.442;2023-04-12T01:15:59;8.40;8.40;4.00
44933;PMS3003;30667;43.614;1.442;2023-04-12T01:18:32;8.20;7.60;3.20
44933;PMS3003;30667;43.614;1.442;2023-04-12T01:21:05;10.00;9.00;4.00
44933;PMS3003;30667;43.614;1.442;2023-04-12T01:23:42;9.80;9.60;4.40
44933;PMS3003;30667;43.614;1.442;2023-04-12T01:29:08;10.40;9.00;4.00
44933;PMS3003;30667;43.614;1.442;2023-04-12T01:31:39;10.00;8.40;4.00
44933;PMS3003;30667;43.614;1.442;2023-04-12T01:34:06;8.60;8.00;4.00
44933;PMS3003;30667;43.614;1.442;2023-04-12T01:36:35;8.80;8.60;4.00
44933;PMS3003;30667;43.614;1.442;2023-04-12T01:39:03;8.00;7.00;4.40
44933;PMS3003;30667;43.614;1.442;2023-04-12T01:41:30;9.20;9.00;5.00
44933;PMS3003;30667;43.614;1.442;2023-04-12T01:43:56;9.20;9.20;5.00
44933;PMS3003;30667;43.614;1.442;2023-04-12T01:46:22;13.00;9.50;5.00
44933;PMS3003;30667;43.614;1.442;2023-04-12T01:48:48;10.80;9.80;5.60
44933;PMS3003;30667;43.614;1.442;2023-04-12T01:54:49;8.60;8.20;5.40
44933;PMS3003;30667;43.614;1.442;2023-04-12T01:57:18;12.40;11.60;7.00
44933;PMS3003;30667;43.614;1.442;2023-04-12T01:59:45;13.20;11.20;5.20
44933;PMS3003;30667;43.614;1.442;2023-04-12T02:02:13;13.60;12.00;7.00
44933;PMS3003;30667;43.614;1.442;2023-04-12T02:04:39;12.00;10.00;6.00
44933;PMS3003;30667;43.614;1.442;2023-04-12T02:07:06;13.60;12.60;5.80
44933;PMS3003;30667;43.614;1.442;2023-04-12T02:09:36;14.00;11.60;7.00
44933;PMS3003;30667;43.614;1.442;2023-04-12T02:12:05;16.60;15.20;8.40
44933;PMS3003;30667;43.614;1.442;2023-04-12T02:14:31;18.40;15.60;8.20
44933;PMS3003;30667;43.614;1.442;2023-04-12T02:16:56;15.50;14.50;8.75
44933;PMS3003;30667;43.614;1.442;2023-04-12T02:19:22;16.75;15.50;9.00
44933;PMS3003;30667;43.614;1.442;2023-04-12T02:21:49;19.20;18.20;11.00
44933;PMS3003;30667;43.614;1.442;2023-04-12T02:24:15;21.00;18.20;10.00
44933;PMS3003;30667;43.614;1.442;2023-04-12T02:26:40;21.00;20.25;13.00
44933;PMS3003;30667;43.614;1.442;2023-04-12T02:29:06;26.00;22.75;16.00
44933;PMS3003;30667;43.614;1.442;2023-04-12T02:31:33;30.00;24.40;15.40
44933;PMS3003;30667;43.614;1.442;2023-04-12T02:34:01;23.20;21.00;12.00
44933;PMS3003;30667;43.614;1.442;2023-04-12T02:36:27;21.40;18.80;13.00
44933;PMS3003;30667;43.614;1.442;2023-04-12T02:38:53;21.80;19.60;13.00
44933;PMS3003;30667;43.614;1.442;2023-04-12T02:41:20;20.00;19.80;12.80
44933;PMS3003;30667;43.614;1.442;2023-04-12T02:43:46;16.60;12.60;7.20
44933;PMS3003;30667;43.614;1.442;2023-04-12T02:46:15;12.75;11.25;6.50
44933;PMS3003;30667;43.614;1.442;2023-04-12T02:48:43;10.60;10.00;6.20
44933;PMS3003;30667;43.614;1.442;2023-04-12T02:51:12;9.40;8.80;4.00
44933;PMS3003;30667;43.614;1.442;2023-04-12T02:53:37;10.00;10.00;4.75
44933;PMS3003;30667;43.614;1.442;2023-04-12T02:56:03;12.25;10.75;6.00
44933;PMS3003;30667;43.614;1.442;2023-04-12T02:58:29;9.60;9.20;4.80
44933;PMS3003;30667;43.614;1.442;2023-04-12T03:00:55;10.00;9.00;4.00
44933;PMS3003;30667;43.614;1.442;2023-04-12T03:03:24;9.00;8.00;4.80
44933;PMS3003;30667;43.614;1.442;2023-04-12T03:05:50;12.00;10.20;5.60
44933;PMS3003;30667;43.614;1.442;2023-04-12T03:08:17;10.80;10.00;6.40
44933;PMS3003;30667;43.614;1.442;2023-04-12T03:10:43;9.80;9.00;5.20
44933;PMS3003;30667;43.614;1.442;2023-04-12T03:13:08;11.00;9.00;4.00
44933;PMS3003;30667;43.614;1.442;2023-04-12T03:15:33;8.50;8.25;3.50
44933;PMS3003;30667;43.614;1.442;2023-04-12T03:17:59;9.00;8.25;4.50
44933;PMS3003;30667;43.614;1.442;2023-04-12T03:20:25;9.00;9.00;4.00
44933;PMS3003;30667;43.614;1.442;2023-04-12T03:22:52;8.00;8.00;4.00
44933;PMS3003;30667;43.614;1.442;2023-04-12T03:25:17;11.50;9.00;4.00
44933;PMS3003;30667;43.614;1.442;2023-04-12T03:27:43;7.75;7.75;4.00
44933;PMS3003;30667;43.614;1.442;2023-04-12T03:30:09;9.20;8.80;5.20
44933;PMS3003;30667;43.614;1.442;2023-04-12T03:32:35;9.00;8.80;4.60
44933;PMS3003;30667;43.614;1.442;2023-04-12T03:35:04;11.20;10.00;7.00
44933;PMS3003;30667;43.614;1.442;2023-04-12T03:37:32;16.80;15.20;12.00
44933;PMS3003;30667;43.614;1.442;2023-04-12T03:39:58;11.80;10.00;7.00
44933;PMS3003;30667;43.614;1.442;2023-04-12T03:42:23;11.25;8.75;4.00
44933;PMS3003;30667;43.614;1.442;2023-04-12T03:44:49;8.25;8.25;6.00
44933;PMS3003;30667;43.614;1.442;2023-04-12T03:47:16;9.00;8.00;4.80
44933;PMS3003;30667;43.614;1.442;2023-04-12T03:49:42;10.00;9.00;4.00
44933;PMS3003;30667;43.614;1.442;2023-04-12T03:52:07;10.75;10.00;6.00
44933;PMS3003;30667;43.614;1.442;2023-04-12T03:54:33;6.50;6.50;3.00
44933;PMS3003;30667;43.614;1.442;2023-04-12T03:56:58;7.50;7.50;3.50
44933;PMS3003;30667;43.614;1.442;2023-04-12T03:59:24;9.25;8.75;4.00
44933;PMS3003;30667;43.614;1.442;2023-04-12T04:01:49;9.00;8.25;4.00
44933;PMS3003;30667;43.614;1.442;2023-04-12T04:04:15;8.00;8.00;4.00
44933;PMS3003;30667;43.614;1.442;2023-04-12T04:06:40;10.75;8.00;4.00
44933;PMS3003;30667;43.614;1.442;2023-04-12T04:09:06;11.25;9.50;6.00
44933;PMS3003;30667;43.614;1.442;2023-04-12T04:11:31;11.00;9.00;4.00
44933;PMS3003;30667;43.614;1.442;2023-04-12T04:13:57;9.00;8.00;4.00
44933;PMS3003;30667;43.614;1.442;2023-04-12T04:16:22;8.25;8.00;3.00
44933;PMS3003;30667;43.614;1.442;2023-04-12T04:18:47;11.25;9.75;6.00
44933;PMS3003;30667;43.614;1.442;2023-04-12T04:21:13;8.50;8.00;3.75
44933;PMS3003;30667;43.614;1.442;2023-04-12T04:23:39;9.00;9.00;4.00
44933;PMS3003;30667;43.614;1.442;2023-04-12T04:26:08;12.00;12.00;6.80
44933;PMS3003;30667;43.614;1.442;2023-04-12T04:28:34;12.00;11.40;7.00
44933;PMS3003;30667;43.614;1.442;2023-04-12T04:31:01;11.20;11.20;7.00
44933;PMS3003;30667;43.614;1.442;2023-04-12T04:33:31;12.60;12.00;6.40
44933;PMS3003;30667;43.614;1.442;2023-04-12T04:35:59;10.40;10.40;6.80
44933;PMS3003;30667;43.614;1.442;2023-04-12T04:38:26;10.80;10.80;6.00
44933;PMS3003;30667;43.614;1.442;2023-04-12T04:40:51;13.00;10.80;4.20
44933;PMS3003;30667;43.614;1.442;2023-04-12T04:43:17;11.25;11.00;7.00
44933;PMS3003;30667;43.614;1.442;2023-04-12T04:45:44;14.40;12.20;7.00
44933;PMS3003;30667;43.614;1.442;2023-04-12T04:48:13;12.60;11.80;6.60
44933;PMS3003;30667;43.614;1.442;2023-04-12T04:50:38;12.75;11.50;6.75
44933;PMS3003;30667;43.614;1.442;2023-04-12T04:53:04;12.50;12.00;6.25
44933;PMS3003;30667;43.614;1.442;2023-04-12T04:55:29;12.00;11.25;6.00
44933;PMS3003;30667;43.614;1.442;2023-04-12T04:57:55;11.50;11.50;7.00
44933;PMS3003;30667;43.614;1.442;2023-04-12T05:00:21;14.80;12.60;6.80
44933;PMS3003;30667;43.614;1.442;2023-04-12T05:02:49;13.80;11.60;7.00
44933;PMS3003;30667;43.614;1.442;2023-04-12T05:05:15;12.20;12.20;7.40
44933;PMS3003;30667;43.614;1.442;2023-04-12T05:07:41;12.00;11.40;7.00
44933;PMS3003;30667;43.614;1.442;2023-04-12T05:10:07;12.20;11.40;7.00
44933;PMS3003;30667;43.614;1.442;2023-04-12T05:12:34;12.20;11.80;6.60
44933;PMS3003;30667;43.614;1.442;2023-04-12T05:15:00;12.25;11.75;7.00
44933;PMS3003;30667;43.614;1.442;2023-04-12T05:17:26;13.80;11.60;7.00
44933;PMS3003;30667;43.614;1.442;2023-04-12T05:19:52;13.00;12.60;7.80
44933;PMS3003;30667;43.614;1.442;2023-04-12T05:22:17;14.00;12.75;8.00
44933;PMS3003;30667;43.614;1.442;2023-04-12T05:24:44;16.00;14.00;7.80
44933;PMS3003;30667;43.614;1.442;2023-04-12T05:27:10;12.80;11.80;7.80
44933;PMS3003;30667;43.614;1.442;2023-04-12T05:29:36;16.00;13.25;7.00
44933;PMS3003;30667;43.614;1.442;2023-04-12T05:32:01;12.50;12.00;7.00
44933;PMS3003;30667;43.614;1.442;2023-04-12T05:34:26;13.75;13.75;9.00
44933;PMS3003;30667;43.614;1.442;2023-04-12T05:36:52;16.50;14.00;8.00
44933;PMS3003;30667;43.614;1.442;2023-04-12T05:39:17;16.25;13.25;8.00
44933;PMS3003;30667;43.614;1.442;2023-04-12T05:41:43;18.75;16.25;8.50
44933;PMS3003;30667;43.614;1.442;2023-04-12T05:44:08;13.25;12.00;7.25
44933;PMS3003;30667;43.614;1.442;2023-04-12T05:46:33;14.00;13.50;8.00
44933;PMS3003;30667;43.614;1.442;2023-04-12T05:49:01;16.80;13.40;8.80
44933;PMS3003;30667;43.614;1.442;2023-04-12T05:51:27;17.20;15.20;7.60
44933;PMS3003;30667;43.614;1.442;2023-04-12T05:53:52;15.50;13.75;8.00
44933;PMS3003;30667;43.614;1.442;2023-04-12T05:56:17;15.75;14.25;9.00
44933;PMS3003;30667;43.614;1.442;2023-04-12T05:58:43;14.50;14.25;8.00
44933;PMS3003;30667;43.614;1.442;2023-04-12T06:01:08;15.00;15.00;9.00
44933;PMS3003;30667;43.614;1.442;2023-04-12T06:03:34;16.60;14.00;9.00
44933;PMS3003;30667;43.614;1.442;2023-04-12T06:06:00;18.75;15.75;8.00
44933;PMS3003;30667;43.614;1.442;2023-04-12T06:08:26;16.60;15.80;8.80
44933;PMS3003;30667;43.614;1.442;2023-04-12T06:10:53;17.80;16.40;10.80
44933;PMS3003;30667;43.614;1.442;2023-04-12T06:13:18;14.25;14.25;11.00
44933;PMS3003;30667;43.614;1.442;2023-04-12T06:15:44;17.40;17.00;11.60
44933;PMS3003;30667;43.614;1.442;2023-04-12T06:18:10;19.00;17.25;11.00
44933;PMS3003;30667;43.614;1.442;2023-04-12T06:20:39;21.40;17.00;11.00
44933;PMS3003;30667;43.614;1.442;2023-04-12T06:23:05;16.80;16.60;10.60
44933;PMS3003;30667;43.614;1.442;2023-04-12T06:25:31;21.00;18.25;11.75
44933;PMS3003;30667;43.614;1.442;2023-04-12T06:27:57;16.60;15.80;10.00
44933;PMS3003;30667;43.614;1.442;2023-04-12T06:30:23;20.00;17.00;11.00
44933;PMS3003;30667;43.614;1.442;2023-04-12T06:32:48;18.00;16.75;11.00
44933;PMS3003;30667;43.614;1.442;2023-04-12T06:35:14;22.75;17.00;11.00
44933;PMS3003;30667;43.614;1.442;2023-04-12T06:37:39;20.50;18.50;12.00
44933;PMS3003;30667;43.614;1.442;2023-04-12T06:40:05;19.00;18.20;12.20
44933;PMS3003;30667;43.614;1.442;2023-04-12T06:42:31;19.00;18.00;10.40
44933;PMS3003;30667;43.614;1.442;2023-04-12T06:44:57;21.25;18.50;12.50
44933;PMS3003;30667;43.614;1.442;2023-04-12T06:47:23;20.75;18.00;12.00
44933;PMS3003;30667;43.614;1.442;2023-04-12T06:49:49;20.20;19.80;12.00
44933;PMS3003;30667;43.614;1.442;2023-04-12T06:52:17;21.20;17.20;12.00
44933;PMS3003;30667;43.614;1.442;2023-04-12T06:54:42;21.00;19.00;12.00
44933;PMS3003;30667;43.614;1.442;2023-04-12T06:57:10;19.50;17.00;12.00
44933;PMS3003;30667;43.614;1.442;2023-04-12T06:59:36;19.20;17.00;11.00
44933;PMS3003;30667;43.614;1.442;2023-04-12T07:02:01;19.75;17.25;11.00
44933;PMS3003;30667;43.614;1.442;2023-04-12T07:04:26;19.00;18.25;12.00
44933;PMS3003;30667;43.614;1.442;2023-04-12T07:06:52;19.00;17.50;11.00
44933;PMS3003;30667;43.614;1.442;2023-04-12T07:09:17;18.50;17.25;11.00
44933;PMS3003;30667;43.614;1.442;2023-04-12T07:11:43;18.80;17.60;11.60
44933;PMS3003;30667;43.614;1.442;2023-04-12T07:14:08;19.75;17.25;11.00
44933;PMS3003;30667;43.614;1.442;2023-04-12T07:16:34;15.25;14.50;8.25
44933;PMS3003;30667;43.614;1.442;2023-04-12T07:18:59;18.75;18.00;11.25
44933;PMS3003;30667;43.614;1.442;2023-04-12T07:21:25;19.25;17.50;11.75
44933;PMS3003;30667;43.614;1.442;2023-04-12T07:23:51;19.60;18.40;11.40
44933;PMS3003;30667;43.614;1.442;2023-04-12T07:26:17;19.00;18.50;12.00
44933;PMS3003;30667;43.614;1.442;2023-04-12T07:28:45;18.80;17.00;10.80
44933;PMS3003;30667;43.614;1.442;2023-04-12T07:31:11;17.50;16.25;11.00
44933;PMS3003;30667;43.614;1.442;2023-04-12T07:33:36;16.00;15.75;9.00
44933;PMS3003;30667;43.614;1.442;2023-04-12T07:36:03;20.00;17.50;11.75
44933;PMS3003;30667;43.614;1.442;2023-04-12T07:38:28;19.20;18.60;12.00
44933;PMS3003;30667;43.614;1.442;2023-04-12T07:40:54;26.25;19.75;13.00
44933;PMS3003;30667;43.614;1.442;2023-04-12T07:43:20;21.00;19.20;12.00
44933;PMS3003;30667;43.614;1.442;2023-04-12T07:45:46;19.00;18.00;10.80
44933;PMS3003;30667;43.614;1.442;2023-04-12T07:48:11;19.75;17.50;11.00
44933;PMS3003;30667;43.614;1.442;2023-04-12T07:50:37;20.00;17.00;11.00
44933;PMS3003;30667;43.614;1.442;2023-04-12T07:53:16;21.80;19.00;12.40
44933;PMS3003;30667;43.614;1.442;2023-04-12T07:55:46;20.20;17.40;11.40
44933;PMS3003;30667;43.614;1.442;2023-04-12T07:58:12;19.75;18.25;10.50
44933;PMS3003;30667;43.614;1.442;2023-04-12T08:00:38;16.00;16.00;10.75
44933;PMS3003;30667;43.614;1.442;2023-04-12T08:03:03;16.00;16.00;9.00
44933;PMS3003;30667;43.614;1.442;2023-04-12T08:05:28;20.00;17.50;11.50
44933;PMS3003;30667;43.614;1.442;2023-04-12T08:07:54;16.00;14.25;8.00
44933;PMS3003;30667;43.614;1.442;2023-04-12T08:10:20;18.00;16.40;8.60
44933;PMS3003;30667;43.614;1.442;2023-04-12T08:12:45;17.00;16.50;11.00
44933;PMS3003;30667;43.614;1.442;2023-04-12T08:15:12;14.25;14.00;8.00
44933;PMS3003;30667;43.614;1.442;2023-04-12T08:17:37;18.40;16.80;10.60
44933;PMS3003;30667;43.614;1.442;2023-04-12T08:20:03;16.50;14.25;8.25
44933;PMS3003;30667;43.614;1.442;2023-04-12T08:22:29;17.40;13.60;8.40
44933;PMS3003;30667;43.614;1.442;2023-04-12T08:24:54;17.00;13.75;8.75
44933;PMS3003;30667;43.614;1.442;2023-04-12T08:27:20;18.00;17.00;9.00
44933;PMS3003;30667;43.614;1.442;2023-04-12T08:29:45;13.75;13.00;8.00
44933;PMS3003;30667;43.614;1.442;2023-04-12T08:32:11;13.75;13.00;7.00
44933;PMS3003;30667;43.614;1.442;2023-04-12T08:34:36;14.00;13.00;7.00
44933;PMS3003;30667;43.614;1.442;2023-04-12T08:37:02;14.40;13.40;7.20
44933;PMS3003;30667;43.614;1.442;2023-04-12T08:39:29;13.75;12.25;8.00
44933;PMS3003;30667;43.614;1.442;2023-04-12T08:41:55;15.40;14.00;7.40
44933;PMS3003;30667;43.614;1.442;2023-04-12T08:44:26;14.25;13.50;7.00
44933;PMS3003;30667;43.614;1.442;2023-04-12T08:47:01;12.00;11.20;6.80
44933;PMS3003;30667;43.614;1.442;2023-04-12T08:49:27;13.00;12.00;6.20
44933;PMS3003;30667;43.614;1.442;2023-04-12T08:51:55;14.80;12.80;6.00
44933;PMS3003;30667;43.614;1.442;2023-04-12T08:54:34;13.00;11.60;6.00
44933;PMS3003;30667;43.614;1.442;2023-04-12T08:57:00;10.40;10.40;6.00
44933;PMS3003;30667;43.614;1.442;2023-04-12T08:59:29;13.20;9.20;6.00
44933;PMS3003;30667;43.614;1.442;2023-04-12T09:01:55;14.00;12.60;6.00
44933;PMS3003;30667;43.614;1.442;2023-04-12T09:04:22;9.00;9.00;6.00
44933;PMS3003;30667;43.614;1.442;2023-04-12T09:06:48;9.00;8.00;4.80
44933;PMS3003;30667;43.614;1.442;2023-04-12T09:09:13;13.00;11.00;6.00
44933;PMS3003;30667;43.614;1.442;2023-04-12T09:11:39;11.75;10.25;6.00
44933;PMS3003;30667;43.614;1.442;2023-04-12T09:14:19;9.75;9.50;6.00
44933;PMS3003;30667;43.614;1.442;2023-04-12T09:16:49;10.80;10.20;4.40
44933;PMS3003;30667;43.614;1.442;2023-04-12T09:19:15;11.20;11.20;6.60
44933;PMS3003;30667;43.614;1.442;2023-04-12T09:21:56;10.00;9.00;6.25
44933;PMS3003;30667;43.614;1.442;2023-04-12T09:24:21;9.80;8.60;3.20
44933;PMS3003;30667;43.614;1.442;2023-04-12T09:27:05;9.00;9.00;6.00
44933;PMS3003;30667;43.614;1.442;2023-04-12T09:29:32;8.60;8.60;6.00
44933;PMS3003;30667;43.614;1.442;2023-04-12T09:34:28;8.80;8.00;4.00
44933;PMS3003;30667;43.614;1.442;2023-04-12T09:36:54;9.00;9.00;5.80
44933;PMS3003;30667;43.614;1.442;2023-04-12T09:39:29;14.20;11.80;7.00
44933;PMS3003;30667;43.614;1.442;2023-04-12T09:42:09;12.80;10.00;5.60
44933;PMS3003;30667;43.614;1.442;2023-04-12T09:44:36;13.20;10.00;5.80
44933;PMS3003;30667;43.614;1.442;2023-04-12T09:47:04;11.60;9.00;5.80
44933;PMS3003;30667;43.614;1.442;2023-04-12T09:52:03;9.00;7.00;3.00
44933;PMS3003;30667;43.614;1.442;2023-04-12T09:54:30;8.80;8.00;3.40
44933;PMS3003;30667;43.614;1.442;2023-04-12T09:57:07;8.80;8.00;3.40
44933;PMS3003;30667;43.614;1.442;2023-04-12T09:59:37;8.20;7.20;3.00
44933;PMS3003;30667;43.614;1.442;2023-04-12T10:02:07;8.20;8.00;3.40
44933;PMS3003;30667;43.614;1.442;2023-04-12T10:04:38;8.00;7.40;3.00
44933;PMS3003;30667;43.614;1.442;2023-04-12T10:07:05;9.60;8.20;4.00
44933;PMS3003;30667;43.614;1.442;2023-04-12T10:09:31;10.75;9.00;4.00
44933;PMS3003;30667;43.614;1.442;2023-04-12T10:11:57;8.80;8.80;3.00
44933;PMS3003;30667;43.614;1.442;2023-04-12T10:14:26;10.20;8.80;4.00
44933;PMS3003;30667;43.614;1.442;2023-04-12T10:16:54;11.00;10.00;6.40
44933;PMS3003;30667;43.614;1.442;2023-04-12T10:19:22;9.80;9.80;5.60
44933;PMS3003;30667;43.614;1.442;2023-04-12T10:21:50;9.00;9.00;4.00
44933;PMS3003;30667;43.614;1.442;2023-04-12T10:24:15;7.00;5.75;3.00
44933;PMS3003;30667;43.614;1.442;2023-04-12T10:26:41;7.25;7.00;2.00
44933;PMS3003;30667;43.614;1.442;2023-04-12T10:29:26;6.80;6.20;3.00
44933;PMS3003;30667;43.614;1.442;2023-04-12T10:31:52;7.20;7.00;2.40
44933;PMS3003;30667;43.614;1.442;2023-04-12T10:34:22;7.00;6.80;3.00
44933;PMS3003;30667;43.614;1.442;2023-04-12T10:39:40;8.80;8.00;4.00
44933;PMS3003;30667;43.614;1.442;2023-04-12T10:44:48;7.20;6.60;2.20
44933;PMS3003;30667;43.614;1.442;2023-04-12T10:47:15;5.40;5.00;2.00
44933;PMS3003;30667;43.614;1.442;2023-04-12T10:50:18;8.00;7.00;3.00
44933;PMS3003;30667;43.614;1.442;2023-04-12T10:55:49;7.20;4.00;2.00
44933;PMS3003;30667;43.614;1.442;2023-04-12T11:01:14;6.60;5.60;2.00
44933;PMS3003;30667;43.614;1.442;2023-04-12T11:09:15;7.00;6.60;2.00
44933;PMS3003;30667;43.614;1.442;2023-04-12T11:11:41;6.60;5.40;3.00
44933;PMS3003;30667;43.614;1.442;2023-04-12T11:14:11;7.40;7.20;3.00
44933;PMS3003;30667;43.614;1.442;2023-04-12T11:19:30;5.60;4.80;2.00
44933;PMS3003;30667;43.614;1.442;2023-04-12T11:22:00;5.00;5.00;2.00
44933;PMS3003;30667;43.614;1.442;2023-04-12T11:24:28;5.00;4.60;2.20
44933;PMS3003;30667;43.614;1.442;2023-04-12T11:26:55;8.75;7.00;2.25
44933;PMS3003;30667;43.614;1.442;2023-04-12T11:29:24;7.20;5.60;2.00
44933;PMS3003;30667;43.614;1.442;2023-04-12T11:31:51;5.00;4.80;2.00
44933;PMS3003;30667;43.614;1.442;2023-04-12T11:34:17;5.50;5.25;2.00
44933;PMS3003;30667;43.614;1.442;2023-04-12T11:36:46;7.20;5.40;2.00
44933;PMS3003;30667;43.614;1.442;2023-04-12T11:39:16;5.20;5.20;2.00
44933;PMS3003;30667;43.614;1.442;2023-04-12T11:41:46;5.00;5.00;2.00
44933;PMS3003;30667;43.614;1.442;2023-04-12T11:44:13;6.80;6.80;3.00
44933;PMS3003;30667;43.614;1.442;2023-04-12T11:46:43;5.80;5.60;3.00
44933;PMS3003;30667;43.614;1.442;2023-04-12T11:49:09;7.40;6.60;3.00
44933;PMS3003;30667;43.614;1.442;2023-04-12T11:51:39;4.20;4.20;2.00
44933;PMS3003;30667;43.614;1.442;2023-04-12T11:54:05;5.80;5.60;3.00
44933;PMS3003;30667;43.614;1.442;2023-04-12T11:56:30;6.75;6.75;2.75
44933;PMS3003;30667;43.614;1.442;2023-04-12T11:58:56;7.50;5.00;2.25
44933;PMS3003;30667;43.614;1.442;2023-04-12T12:01:22;6.00;6.00;2.50
44933;PMS3003;30667;43.614;1.442;2023-04-12T12:03:48;7.00;6.60;3.00
44933;PMS3003;30667;43.614;1.442;2023-04-12T12:06:14;7.80;5.00;3.00
44933;PMS3003;30667;43.614;1.442;2023-04-12T12:08:40;6.80;5.80;3.00
44933;PMS3003;30667;43.614;1.442;2023-04-12T12:11:06;8.25;5.75;2.25
44933;PMS3003;30667;43.614;1.442;2023-04-12T12:13:47;7.75;7.75;3.00
44933;PMS3003;30667;43.614;1.442;2023-04-12T12:16:13;9.00;8.20;3.20
44933;PMS3003;30667;43.614;1.442;2023-04-12T12:18:39;8.40;7.60;3.80
44933;PMS3003;30667;43.614;1.442;2023-04-12T12:21:07;8.80;8.20;4.00
44933;PMS3003;30667;43.614;1.442;2023-04-12T12:23:35;9.00;8.00;4.00
44933;PMS3003;30667;43.614;1.442;2023-04-12T12:26:01;6.75;6.75;3.00
44933;PMS3003;30667;43.614;1.442;2023-04-12T12:28:28;8.00;6.00;3.00
44933;PMS3003;30667;43.614;1.442;2023-04-12T12:30:54;9.80;9.20;4.00
44933;PMS3003;30667;43.614;1.442;2023-04-12T12:33:21;9.80;8.00;4.00
44933;PMS3003;30667;43.614;1.442;2023-04-12T12:36:00;9.00;8.20;4.00
44933;PMS3003;30667;43.614;1.442;2023-04-12T12:38:33;12.75;11.00;5.00
44933;PMS3003;30667;43.614;1.442;2023-04-12T12:41:21;13.60;10.00;5.00
44933;PMS3003;30667;43.614;1.442;2023-04-12T12:43:48;10.20;10.20;4.00
44933;PMS3003;30667;43.614;1.442;2023-04-12T12:46:15;10.60;9.80;4.60
44933;PMS3003;30667;43.614;1.442;2023-04-12T12:48:44;11.00;9.00;4.80
44933;PMS3003;30667;43.614;1.442;2023-04-12T12:51:12;9.60;8.60;3.80
44933;PMS3003;30667;43.614;1.442;2023-04-12T12:53:41;9.80;9.00;4.80
44933;PMS3003;30667;43.614;1.442;2023-04-12T12:56:07;10.00;10.00;6.40
44933;PMS3003;30667;43.614;1.442;2023-04-12T12:58:34;9.60;9.60;4.80
44933;PMS3003;30667;43.614;1.442;2023-04-12T13:01:00;12.00;10.00;6.40
44933;PMS3003;30667;43.614;1.442;2023-04-12T13:03:26;12.50;10.50;5.00
44933;PMS3003;30667;43.614;1.442;2023-04-12T13:05:51;3.00;2.00;0.00
44933;PMS3003;30667;43.614;1.442;2023-04-12T13:08:17;2.00;2.00;0.00
44933;PMS3003;30667;43.614;1.442;2023-04-12T13:10:42;1.00;1.00;0.00
44933;PMS3003;30667;43.614;1.442;2023-04-12T13:13:08;1.00;1.00;0.00
44933;PMS3003;30667;43.614;1.442;2023-04-12T13:15:34;0.00;0.00;0.00
44933;PMS3003;30667;43.614;1.442;2023-04-12T13:17:59;1.00;0.75;0.00
44933;PMS3003;30667;43.614;1.442;2023-04-12T13:20:25;1.00;1.00;0.00
44933;PMS3003;30667;43.614;1.442;2023-04-12T13:22:51;1.80;1.80;0.00
44933;PMS3003;30667;43.614;1.442;2023-04-12T13:25:17;1.60;1.00;0.00
44933;PMS3003;30667;43.614;1.442;2023-04-12T13:27:48;1.00;1.00;0.00
44933;PMS3003;30667;43.614;1.442;2023-04-12T13:30:15;2.00;1.00;0.00
44933;PMS3003;30667;43.614;1.442;2023-04-12T13:32:41;1.00;0.40;0.00
44933;PMS3003;30667;43.614;1.442;2023-04-12T13:35:08;1.00;1.00;0.00
44933;PMS3003;30667;43.614;1.442;2023-04-12T13:37:34;0.00;0.00;0.00
44933;PMS3003;30667;43.614;1.442;2023-04-12T13:40:00;1.00;0.25;0.00
44933;PMS3003;30667;43.614;1.442;2023-04-12T13:42:25;1.00;1.00;0.00
44933;PMS3003;30667;43.614;1.442;2023-04-12T13:44:51;1.25;0.00;0.00
44933;PMS3003;30667;43.614;1.442;2023-04-12T13:47:16;0.50;0.50;0.00
44933;PMS3003;30667;43.614;1.442;2023-04-12T13:49:42;0.75;0.75;0.00
44933;PMS3003;30667;43.614;1.442;2023-04-12T13:52:08;1.00;0.75;0.00
44933;PMS3003;30667;43.614;1.442;2023-04-12T13:54:33;1.00;1.00;0.00
44933;PMS3003;30667;43.614;1.442;2023-04-12T13:56:58;2.00;1.00;0.00
44933;PMS3003;30667;43.614;1.442;2023-04-12T13:59:24;2.00;1.00;0.00
44933;PMS3003;30667;43.614;1.442;2023-04-12T14:01:50;3.00;1.60;0.00
44933;PMS3003;30667;43.614;1.442;2023-04-12T14:04:16;0.00;0.00;0.00
44933;PMS3003;30667;43.614;1.442;2023-04-12T14:06:41;1.00;1.00;0.00
44933;PMS3003;30667;43.614;1.442;2023-04-12T14:09:14;0.80;0.80;0.00
44933;PMS3003;30667;43.614;1.442;2023-04-12T14:11:47;2.60;1.00;0.00
44933;PMS3003;30667;43.614;1.442;2023-04-12T14:14:13;0.00;0.00;0.00
44933;PMS3003;30667;43.614;1.442;2023-04-12T14:16:38;0.50;0.50;0.00
44933;PMS3003;30667;43.614;1.442;2023-04-12T14:19:04;1.50;1.00;0.00
44933;PMS3003;30667;43.614;1.442;2023-04-12T14:21:30;1.00;1.00;0.00
44933;PMS3003;30667;43.614;1.442;2023-04-12T14:23:55;1.00;1.00;0.00
44933;PMS3003;30667;43.614;1.442;2023-04-12T14:26:21;1.75;1.00;0.00
44933;PMS3003;30667;43.614;1.442;2023-04-12T14:28:46;1.25;0.00;0.00
44933;PMS3003;30667;43.614;1.442;2023-04-12T14:31:14;0.20;0.20;0.00
44933;PMS3003;30667;43.614;1.442;2023-04-12T14:33:42;1.00;1.00;0.00
44933;PMS3003;30667;43.614;1.442;2023-04-12T14:36:08;1.50;1.00;0.00
44933;PMS3003;30667;43.614;1.442;2023-04-12T14:38:33;1.00;1.00;0.00
44933;PMS3003;30667;43.614;1.442;2023-04-12T14:40:59;0.75;0.75;0.00
44933;PMS3003;30667;43.614;1.442;2023-04-12T14:43:25;1.80;1.20;0.00
44933;PMS3003;30667;43.614;1.442;2023-04-12T14:45:51;1.20;1.00;0.00